sensor_id;sensor_type;location;lat;lon;timestamp;P1;durP1;ratioP1;P2;durP2;ratioP2
49860;SDS011;35761;48.826;9.238;2022-11-20T00:01:37;14.10;;;9.10;;
49860;SDS011;35761;48.826;9.238;2022-11-20T00:04:05;18.17;;;9.80;;
49860;SDS011;35761;48.826;9.238;2022-11-20T00:06:35;17.58;;;9.30;;
49860;SDS011;35761;48.826;9.238;2022-11-20T00:09:04;13.55;;;9.02;;
49860;SDS011;35761;48.826;9.238;2022-11-20T00:11:33;17.40;;;9.15;;
49860;SDS011;35761;48.826;9.238;2022-11-20T00:14:02;14.02;;;8.90;;
49860;SDS011;35761;48.826;9.238;2022-11-20T00:16:31;16.92;;;9.75;;
49860;SDS011;35761;48.826;9.238;2022-11-20T00:19:00;16.23;;;8.68;;
49860;SDS011;35761;48.826;9.238;2022-11-20T00:21:30;13.85;;;9.00;;
49860;SDS011;35761;48.826;9.238;2022-11-20T00:23:59;19.20;;;9.02;;
49860;SDS011;35761;48.826;9.238;2022-11-20T00:26:27;13.57;;;8.77;;
49860;SDS011;35761;48.826;9.238;2022-11-20T00:28:59;15.30;;;8.82;;
49860;SDS011;35761;48.826;9.238;2022-11-20T00:31:29;13.65;;;8.50;;
49860;SDS011;35761;48.826;9.238;2022-11-20T00:33:59;14.73;;;9.13;;
49860;SDS011;35761;48.826;9.238;2022-11-20T00:36:28;14.63;;;8.57;;
49860;SDS011;35761;48.826;9.238;2022-11-20T00:38:59;19.83;;;9.25;;
49860;SDS011;35761;48.826;9.238;2022-11-20T00:41:28;16.83;;;8.52;;
49860;SDS011;35761;48.826;9.238;2022-11-20T00:43:59;18.02;;;9.20;;
49860;SDS011;35761;48.826;9.238;2022-11-20T00:46:28;14.75;;;8.70;;
49860;SDS011;35761;48.826;9.238;2022-11-20T00:48:56;13.38;;;8.52;;
49860;SDS011;35761;48.826;9.238;2022-11-20T00:51:25;24.80;;;9.18;;
49860;SDS011;35761;48.826;9.238;2022-11-20T00:53:55;15.45;;;9.10;;
49860;SDS011;35761;48.826;9.238;2022-11-20T00:56:26;13.88;;;8.93;;
49860;SDS011;35761;48.826;9.238;2022-11-20T00:58:55;16.15;;;9.15;;
49860;SDS011;35761;48.826;9.238;2022-11-20T01:01:27;11.30;;;7.82;;
49860;SDS011;35761;48.826;9.238;2022-11-20T01:03:57;13.60;;;8.98;;
49860;SDS011;35761;48.826;9.238;2022-11-20T01:06:28;13.05;;;8.27;;
49860;SDS011;35761;48.826;9.238;2022-11-20T01:08:59;12.82;;;8.02;;
49860;SDS011;35761;48.826;9.238;2022-11-20T01:11:30;11.48;;;7.85;;
49860;SDS011;35761;48.826;9.238;2022-11-20T01:14:02;11.52;;;7.80;;
49860;SDS011;35761;48.826;9.238;2022-11-20T01:16:35;11.40;;;7.75;;
49860;SDS011;35761;48.826;9.238;2022-11-20T01:19:07;11.27;;;7.63;;
49860;SDS011;35761;48.826;9.238;2022-11-20T01:21:43;11.60;;;7.32;;
49860;SDS011;35761;48.826;9.238;2022-11-20T01:24:16;11.63;;;7.20;;
49860;SDS011;35761;48.826;9.238;2022-11-20T01:26:46;13.70;;;8.05;;
49860;SDS011;35761;48.826;9.238;2022-11-20T01:29:18;10.60;;;7.55;;
49860;SDS011;35761;48.826;9.238;2022-11-20T01:31:50;11.77;;;8.05;;
49860;SDS011;35761;48.826;9.238;2022-11-20T01:34:20;11.68;;;7.30;;
49860;SDS011;35761;48.826;9.238;2022-11-20T01:36:50;11.43;;;7.43;;
49860;SDS011;35761;48.826;9.238;2022-11-20T01:39:22;10.52;;;7.88;;
49860;SDS011;35761;48.826;9.238;2022-11-20T01:41:52;9.93;;;7.22;;
49860;SDS011;35761;48.826;9.238;2022-11-20T01:44:47;11.18;;;6.95;;
49860;SDS011;35761;48.826;9.238;2022-11-20T01:47:25;12.10;;;6.63;;
49860;SDS011;35761;48.826;9.238;2022-11-20T01:50:00;10.70;;;6.30;;
49860;SDS011;35761;48.826;9.238;2022-11-20T01:52:34;14.70;;;6.03;;
49860;SDS011;35761;48.826;9.238;2022-11-20T01:55:09;9.98;;;6.32;;
49860;SDS011;35761;48.826;9.238;2022-11-20T01:57:42;13.60;;;6.47;;
49860;SDS011;35761;48.826;9.238;2022-11-20T02:00:13;10.20;;;6.03;;
49860;SDS011;35761;48.826;9.238;2022-11-20T02:02:47;10.38;;;6.03;;
49860;SDS011;35761;48.826;9.238;2022-11-20T02:05:22;9.93;;;5.63;;
49860;SDS011;35761;48.826;9.238;2022-11-20T02:07:56;7.65;;;5.03;;
49860;SDS011;35761;48.826;9.238;2022-11-20T02:10:26;8.48;;;5.43;;
49860;SDS011;35761;48.826;9.238;2022-11-20T02:12:56;6.97;;;4.53;;
49860;SDS011;35761;48.826;9.238;2022-11-20T02:15:42;8.60;;;5.15;;
49860;SDS011;35761;48.826;9.238;2022-11-20T02:18:12;9.25;;;5.68;;
49860;SDS011;35761;48.826;9.238;2022-11-20T02:20:44;12.88;;;6.22;;
49860;SDS011;35761;48.826;9.238;2022-11-20T02:23:16;11.80;;;6.55;;
49860;SDS011;35761;48.826;9.238;2022-11-20T02:25:53;10.88;;;5.80;;
49860;SDS011;35761;48.826;9.238;2022-11-20T02:28:23;9.38;;;6.13;;
49860;SDS011;35761;48.826;9.238;2022-11-20T02:30:52;10.13;;;5.50;;
49860;SDS011;35761;48.826;9.238;2022-11-20T02:33:20;8.77;;;5.30;;
49860;SDS011;35761;48.826;9.238;2022-11-20T02:35:48;9.77;;;5.57;;
49860;SDS011;35761;48.826;9.238;2022-11-20T02:38:17;9.15;;;5.75;;
49860;SDS011;35761;48.826;9.238;2022-11-20T02:40:45;10.32;;;5.18;;
49860;SDS011;35761;48.826;9.238;2022-11-20T02:43:22;8.48;;;4.68;;
49860;SDS011;35761;48.826;9.238;2022-11-20T02:45:50;7.00;;;4.32;;
49860;SDS011;35761;48.826;9.238;2022-11-20T02:48:19;7.35;;;4.20;;
49860;SDS011;35761;48.826;9.238;2022-11-20T02:50:50;7.78;;;4.50;;
49860;SDS011;35761;48.826;9.238;2022-11-20T02:53:19;7.30;;;3.80;;
49860;SDS011;35761;48.826;9.238;2022-11-20T02:55:47;7.47;;;3.83;;
49860;SDS011;35761;48.826;9.238;2022-11-20T02:58:15;6.95;;;3.72;;
49860;SDS011;35761;48.826;9.238;2022-11-20T03:00:45;5.47;;;3.50;;
49860;SDS011;35761;48.826;9.238;2022-11-20T03:03:13;6.15;;;2.97;;
49860;SDS011;35761;48.826;9.238;2022-11-20T03:05:42;5.95;;;2.67;;
49860;SDS011;35761;48.826;9.238;2022-11-20T03:08:10;5.93;;;2.90;;
49860;SDS011;35761;48.826;9.238;2022-11-20T03:10:38;3.22;;;2.28;;
49860;SDS011;35761;48.826;9.238;2022-11-20T03:13:06;4.57;;;2.90;;
49860;SDS011;35761;48.826;9.238;2022-11-20T03:15:35;6.07;;;2.45;;
49860;SDS011;35761;48.826;9.238;2022-11-20T03:18:05;8.70;;;3.25;;
49860;SDS011;35761;48.826;9.238;2022-11-20T03:20:34;5.03;;;2.67;;
49860;SDS011;35761;48.826;9.238;2022-11-20T03:23:02;5.90;;;2.92;;
49860;SDS011;35761;48.826;9.238;2022-11-20T03:25:31;5.32;;;2.53;;
49860;SDS011;35761;48.826;9.238;2022-11-20T03:27:59;5.57;;;2.60;;
49860;SDS011;35761;48.826;9.238;2022-11-20T03:30:27;5.43;;;2.70;;
49860;SDS011;35761;48.826;9.238;2022-11-20T03:32:56;5.80;;;2.35;;
49860;SDS011;35761;48.826;9.238;2022-11-20T03:35:26;5.13;;;2.53;;
49860;SDS011;35761;48.826;9.238;2022-11-20T03:37:54;5.40;;;2.60;;
49860;SDS011;35761;48.826;9.238;2022-11-20T03:40:23;6.10;;;3.00;;
49860;SDS011;35761;48.826;9.238;2022-11-20T03:42:51;3.90;;;2.70;;
49860;SDS011;35761;48.826;9.238;2022-11-20T03:45:19;5.68;;;2.58;;
49860;SDS011;35761;48.826;9.238;2022-11-20T03:47:48;5.18;;;2.90;;
49860;SDS011;35761;48.826;9.238;2022-11-20T03:50:16;7.88;;;2.88;;
49860;SDS011;35761;48.826;9.238;2022-11-20T03:52:46;4.63;;;2.38;;
49860;SDS011;35761;48.826;9.238;2022-11-20T03:55:15;3.72;;;2.65;;
49860;SDS011;35761;48.826;9.238;2022-11-20T03:57:43;5.53;;;2.90;;
49860;SDS011;35761;48.826;9.238;2022-11-20T04:00:12;4.55;;;2.80;;
49860;SDS011;35761;48.826;9.238;2022-11-20T04:02:41;5.70;;;2.38;;
49860;SDS011;35761;48.826;9.238;2022-11-20T04:05:10;5.05;;;2.78;;
49860;SDS011;35761;48.826;9.238;2022-11-20T04:07:38;7.97;;;2.72;;
49860;SDS011;35761;48.826;9.238;2022-11-20T04:10:08;4.28;;;2.65;;
49860;SDS011;35761;48.826;9.238;2022-11-20T04:12:37;5.00;;;2.53;;
49860;SDS011;35761;48.826;9.238;2022-11-20T04:15:05;4.25;;;2.70;;
49860;SDS011;35761;48.826;9.238;2022-11-20T04:17:34;5.07;;;2.90;;
49860;SDS011;35761;48.826;9.238;2022-11-20T04:20:03;5.45;;;2.90;;
49860;SDS011;35761;48.826;9.238;2022-11-20T04:22:32;4.28;;;2.97;;
49860;SDS011;35761;48.826;9.238;2022-11-20T04:25:01;5.40;;;2.97;;
49860;SDS011;35761;48.826;9.238;2022-11-20T04:27:31;6.15;;;2.75;;
49860;SDS011;35761;48.826;9.238;2022-11-20T04:29:59;5.35;;;2.70;;
49860;SDS011;35761;48.826;9.238;2022-11-20T04:32:27;5.25;;;2.53;;
49860;SDS011;35761;48.826;9.238;2022-11-20T04:34:56;5.22;;;2.70;;
49860;SDS011;35761;48.826;9.238;2022-11-20T04:37:24;4.60;;;2.38;;
49860;SDS011;35761;48.826;9.238;2022-11-20T04:39:53;5.28;;;2.75;;
49860;SDS011;35761;48.826;9.238;2022-11-20T04:42:21;5.80;;;2.67;;
49860;SDS011;35761;48.826;9.238;2022-11-20T04:44:57;4.15;;;2.60;;
49860;SDS011;35761;48.826;9.238;2022-11-20T04:47:26;6.30;;;2.95;;
49860;SDS011;35761;48.826;9.238;2022-11-20T04:49:54;7.18;;;2.33;;
49860;SDS011;35761;48.826;9.238;2022-11-20T04:52:23;6.78;;;2.67;;
49860;SDS011;35761;48.826;9.238;2022-11-20T04:54:51;4.38;;;2.40;;
49860;SDS011;35761;48.826;9.238;2022-11-20T04:57:20;6.82;;;2.70;;
49860;SDS011;35761;48.826;9.238;2022-11-20T04:59:48;7.75;;;2.63;;
49860;SDS011;35761;48.826;9.238;2022-11-20T05:02:18;4.82;;;2.83;;
49860;SDS011;35761;48.826;9.238;2022-11-20T05:04:47;6.05;;;2.90;;
49860;SDS011;35761;48.826;9.238;2022-11-20T05:07:15;5.68;;;2.38;;
49860;SDS011;35761;48.826;9.238;2022-11-20T05:09:44;4.85;;;3.22;;
49860;SDS011;35761;48.826;9.238;2022-11-20T05:12:12;4.65;;;2.60;;
49860;SDS011;35761;48.826;9.238;2022-11-20T05:14:41;4.13;;;2.60;;
49860;SDS011;35761;48.826;9.238;2022-11-20T05:17:10;5.22;;;2.92;;
49860;SDS011;35761;48.826;9.238;2022-11-20T05:19:40;6.53;;;3.00;;
49860;SDS011;35761;48.826;9.238;2022-11-20T05:22:08;5.65;;;2.40;;
49860;SDS011;35761;48.826;9.238;2022-11-20T05:24:36;7.53;;;4.18;;
49860;SDS011;35761;48.826;9.238;2022-11-20T05:27:05;16.27;;;6.50;;
49860;SDS011;35761;48.826;9.238;2022-11-20T05:29:33;4.93;;;3.05;;
49860;SDS011;35761;48.826;9.238;2022-11-20T05:32:02;6.18;;;2.83;;
49860;SDS011;35761;48.826;9.238;2022-11-20T05:34:32;5.68;;;2.67;;
49860;SDS011;35761;48.826;9.238;2022-11-20T05:37:02;6.70;;;3.03;;
49860;SDS011;35761;48.826;9.238;2022-11-20T05:39:30;4.60;;;2.42;;
49860;SDS011;35761;48.826;9.238;2022-11-20T05:41:59;5.85;;;2.78;;
49860;SDS011;35761;48.826;9.238;2022-11-20T05:44:45;6.95;;;3.05;;
49860;SDS011;35761;48.826;9.238;2022-11-20T05:47:13;4.60;;;2.97;;
49860;SDS011;35761;48.826;9.238;2022-11-20T05:49:41;4.63;;;2.72;;
49860;SDS011;35761;48.826;9.238;2022-11-20T05:52:11;5.28;;;2.55;;
49860;SDS011;35761;48.826;9.238;2022-11-20T05:54:39;4.47;;;2.50;;
49860;SDS011;35761;48.826;9.238;2022-11-20T05:57:08;4.85;;;2.67;;
49860;SDS011;35761;48.826;9.238;2022-11-20T05:59:37;8.00;;;2.60;;
49860;SDS011;35761;48.826;9.238;2022-11-20T06:02:05;4.60;;;2.72;;
49860;SDS011;35761;48.826;9.238;2022-11-20T06:04:33;6.47;;;2.60;;
49860;SDS011;35761;48.826;9.238;2022-11-20T06:07:02;5.47;;;2.58;;
49860;SDS011;35761;48.826;9.238;2022-11-20T06:09:33;9.48;;;2.80;;
49860;SDS011;35761;48.826;9.238;2022-11-20T06:12:01;4.78;;;2.60;;
49860;SDS011;35761;48.826;9.238;2022-11-20T06:14:30;5.30;;;2.35;;
49860;SDS011;35761;48.826;9.238;2022-11-20T06:16:59;4.20;;;2.33;;
49860;SDS011;35761;48.826;9.238;2022-11-20T06:19:27;7.95;;;4.13;;
49860;SDS011;35761;48.826;9.238;2022-11-20T06:21:56;11.93;;;7.32;;
49860;SDS011;35761;48.826;9.238;2022-11-20T06:24:24;4.07;;;2.33;;
49860;SDS011;35761;48.826;9.238;2022-11-20T06:26:54;5.40;;;2.25;;
49860;SDS011;35761;48.826;9.238;2022-11-20T06:29:23;4.00;;;2.42;;
49860;SDS011;35761;48.826;9.238;2022-11-20T06:31:58;4.70;;;2.30;;
49860;SDS011;35761;48.826;9.238;2022-11-20T06:34:26;4.60;;;1.90;;
49860;SDS011;35761;48.826;9.238;2022-11-20T06:36:54;4.22;;;2.30;;
49860;SDS011;35761;48.826;9.238;2022-11-20T06:39:23;4.60;;;2.47;;
49860;SDS011;35761;48.826;9.238;2022-11-20T06:41:51;6.35;;;2.38;;
49860;SDS011;35761;48.826;9.238;2022-11-20T06:44:25;5.07;;;2.22;;
49860;SDS011;35761;48.826;9.238;2022-11-20T06:46:54;5.47;;;2.30;;
49860;SDS011;35761;48.826;9.238;2022-11-20T06:49:22;6.85;;;2.53;;
49860;SDS011;35761;48.826;9.238;2022-11-20T06:51:51;5.47;;;2.38;;
49860;SDS011;35761;48.826;9.238;2022-11-20T06:54:20;4.75;;;2.30;;
49860;SDS011;35761;48.826;9.238;2022-11-20T06:56:48;3.92;;;2.15;;
49860;SDS011;35761;48.826;9.238;2022-11-20T06:59:17;5.75;;;2.08;;
49860;SDS011;35761;48.826;9.238;2022-11-20T07:01:47;4.25;;;2.20;;
49860;SDS011;35761;48.826;9.238;2022-11-20T07:04:15;9.32;;;6.10;;
49860;SDS011;35761;48.826;9.238;2022-11-20T07:06:44;3.10;;;1.85;;
49860;SDS011;35761;48.826;9.238;2022-11-20T07:09:12;5.28;;;2.22;;
49860;SDS011;35761;48.826;9.238;2022-11-20T07:11:41;3.90;;;2.00;;
49860;SDS011;35761;48.826;9.238;2022-11-20T07:14:09;2.90;;;1.80;;
49860;SDS011;35761;48.826;9.238;2022-11-20T07:16:37;2.53;;;1.80;;
49860;SDS011;35761;48.826;9.238;2022-11-20T07:19:07;5.88;;;2.10;;
49860;SDS011;35761;48.826;9.238;2022-11-20T07:21:35;3.72;;;2.25;;
49860;SDS011;35761;48.826;9.238;2022-11-20T07:24:04;4.07;;;1.90;;
49860;SDS011;35761;48.826;9.238;2022-11-20T07:26:33;6.03;;;1.88;;
49860;SDS011;35761;48.826;9.238;2022-11-20T07:29:01;4.20;;;1.95;;
49860;SDS011;35761;48.826;9.238;2022-11-20T07:31:30;6.80;;;1.90;;
49860;SDS011;35761;48.826;9.238;2022-11-20T07:33:59;3.38;;;2.00;;
49860;SDS011;35761;48.826;9.238;2022-11-20T07:36:28;3.67;;;2.13;;
49860;SDS011;35761;48.826;9.238;2022-11-20T07:38:57;5.25;;;3.25;;
49860;SDS011;35761;48.826;9.238;2022-11-20T07:41:25;3.88;;;2.03;;
49860;SDS011;35761;48.826;9.238;2022-11-20T07:43:54;3.22;;;1.92;;
49860;SDS011;35761;48.826;9.238;2022-11-20T07:46:22;4.18;;;2.17;;
49860;SDS011;35761;48.826;9.238;2022-11-20T07:48:51;3.03;;;2.10;;
49860;SDS011;35761;48.826;9.238;2022-11-20T07:51:20;3.63;;;1.95;;
49860;SDS011;35761;48.826;9.238;2022-11-20T07:53:51;4.03;;;1.90;;
49860;SDS011;35761;48.826;9.238;2022-11-20T07:56:20;3.78;;;1.90;;
49860;SDS011;35761;48.826;9.238;2022-11-20T07:58:48;4.35;;;1.77;;
49860;SDS011;35761;48.826;9.238;2022-11-20T08:01:17;4.65;;;2.00;;
49860;SDS011;35761;48.826;9.238;2022-11-20T08:03:45;3.40;;;2.17;;
49860;SDS011;35761;48.826;9.238;2022-11-20T08:06:14;2.88;;;1.73;;
49860;SDS011;35761;48.826;9.238;2022-11-20T08:08:43;6.38;;;2.05;;
49860;SDS011;35761;48.826;9.238;2022-11-20T08:11:12;4.18;;;1.90;;
49860;SDS011;35761;48.826;9.238;2022-11-20T08:13:59;7.53;;;2.70;;
49860;SDS011;35761;48.826;9.238;2022-11-20T08:16:40;3.67;;;2.00;;
49860;SDS011;35761;48.826;9.238;2022-11-20T08:19:11;2.80;;;1.70;;
49860;SDS011;35761;48.826;9.238;2022-11-20T08:21:40;5.50;;;1.80;;
49860;SDS011;35761;48.826;9.238;2022-11-20T08:24:09;2.97;;;1.70;;
49860;SDS011;35761;48.826;9.238;2022-11-20T08:26:39;4.95;;;2.05;;
49860;SDS011;35761;48.826;9.238;2022-11-20T08:29:09;4.65;;;1.88;;
49860;SDS011;35761;48.826;9.238;2022-11-20T08:31:37;3.20;;;1.80;;
49860;SDS011;35761;48.826;9.238;2022-11-20T08:34:06;2.92;;;1.27;;
49860;SDS011;35761;48.826;9.238;2022-11-20T08:36:36;3.83;;;1.83;;
49860;SDS011;35761;48.826;9.238;2022-11-20T08:39:05;2.88;;;1.70;;
49860;SDS011;35761;48.826;9.238;2022-11-20T08:41:33;5.72;;;1.92;;
49860;SDS011;35761;48.826;9.238;2022-11-20T08:44:05;2.78;;;1.48;;
49860;SDS011;35761;48.826;9.238;2022-11-20T08:46:35;5.22;;;2.00;;
49860;SDS011;35761;48.826;9.238;2022-11-20T08:49:08;7.60;;;3.75;;
49860;SDS011;35761;48.826;9.238;2022-11-20T08:51:38;4.60;;;1.58;;
49860;SDS011;35761;48.826;9.238;2022-11-20T08:54:10;2.30;;;1.40;;
49860;SDS011;35761;48.826;9.238;2022-11-20T08:56:39;2.00;;;1.27;;
49860;SDS011;35761;48.826;9.238;2022-11-20T08:59:08;6.90;;;3.45;;
49860;SDS011;35761;48.826;9.238;2022-11-20T09:01:57;3.22;;;1.40;;
49860;SDS011;35761;48.826;9.238;2022-11-20T09:04:25;2.67;;;1.20;;
49860;SDS011;35761;48.826;9.238;2022-11-20T09:06:54;2.33;;;1.40;;
49860;SDS011;35761;48.826;9.238;2022-11-20T09:09:22;1.67;;;1.00;;
49860;SDS011;35761;48.826;9.238;2022-11-20T09:11:51;2.13;;;1.25;;
49860;SDS011;35761;48.826;9.238;2022-11-20T09:14:21;1.27;;;1.10;;
49860;SDS011;35761;48.826;9.238;2022-11-20T09:16:51;1.85;;;1.08;;
49860;SDS011;35761;48.826;9.238;2022-11-20T09:19:19;4.18;;;1.00;;
49860;SDS011;35761;48.826;9.238;2022-11-20T09:22:03;3.53;;;1.27;;
49860;SDS011;35761;48.826;9.238;2022-11-20T09:24:31;1.00;;;0.90;;
49860;SDS011;35761;48.826;9.238;2022-11-20T09:27:04;0.80;;;0.80;;
49860;SDS011;35761;48.826;9.238;2022-11-20T09:29:34;1.95;;;0.98;;
49860;SDS011;35761;48.826;9.238;2022-11-20T09:32:03;2.83;;;1.90;;
49860;SDS011;35761;48.826;9.238;2022-11-20T09:34:32;2.38;;;1.88;;
49860;SDS011;35761;48.826;9.238;2022-11-20T09:37:01;0.77;;;0.77;;
49860;SDS011;35761;48.826;9.238;2022-11-20T09:39:33;1.10;;;0.82;;
49860;SDS011;35761;48.826;9.238;2022-11-20T09:45:05;0.63;;;0.63;;
49860;SDS011;35761;48.826;9.238;2022-11-20T09:47:50;0.77;;;0.70;;
49860;SDS011;35761;48.826;9.238;2022-11-20T09:50:32;1.67;;;0.75;;
49860;SDS011;35761;48.826;9.238;2022-11-20T09:53:12;1.30;;;0.90;;
49860;SDS011;35761;48.826;9.238;2022-11-20T09:55:48;2.67;;;1.15;;
49860;SDS011;35761;48.826;9.238;2022-11-20T09:58:20;1.25;;;0.90;;
49860;SDS011;35761;48.826;9.238;2022-11-20T10:01:00;1.65;;;0.93;;
49860;SDS011;35761;48.826;9.238;2022-11-20T10:03:41;1.23;;;0.82;;
49860;SDS011;35761;48.826;9.238;2022-11-20T10:06:21;1.25;;;0.73;;
49860;SDS011;35761;48.826;9.238;2022-11-20T10:08:59;1.52;;;0.95;;
49860;SDS011;35761;48.826;9.238;2022-11-20T10:11:42;1.63;;;0.82;;
49860;SDS011;35761;48.826;9.238;2022-11-20T10:14:21;1.45;;;0.90;;
49860;SDS011;35761;48.826;9.238;2022-11-20T10:17:06;1.38;;;0.80;;
49860;SDS011;35761;48.826;9.238;2022-11-20T10:19:48;1.30;;;0.88;;
49860;SDS011;35761;48.826;9.238;2022-11-20T10:22:34;1.00;;;0.80;;
49860;SDS011;35761;48.826;9.238;2022-11-20T10:25:15;0.80;;;0.73;;
49860;SDS011;35761;48.826;9.238;2022-11-20T10:27:52;1.25;;;0.75;;
49860;SDS011;35761;48.826;9.238;2022-11-20T10:30:35;1.13;;;0.80;;
49860;SDS011;35761;48.826;9.238;2022-11-20T10:33:11;1.55;;;0.80;;
49860;SDS011;35761;48.826;9.238;2022-11-20T10:35:48;1.33;;;0.95;;
49860;SDS011;35761;48.826;9.238;2022-11-20T10:38:21;2.38;;;1.20;;
49860;SDS011;35761;48.826;9.238;2022-11-20T10:40:54;0.73;;;0.70;;
49860;SDS011;35761;48.826;9.238;2022-11-20T10:43:46;1.23;;;0.90;;
49860;SDS011;35761;48.826;9.238;2022-11-20T10:46:20;7.55;;;0.90;;
49860;SDS011;35761;48.826;9.238;2022-11-20T10:48:51;2.25;;;1.00;;
49860;SDS011;35761;48.826;9.238;2022-11-20T10:51:23;2.28;;;1.08;;
49860;SDS011;35761;48.826;9.238;2022-11-20T10:54:13;1.60;;;0.98;;
49860;SDS011;35761;48.826;9.238;2022-11-20T10:56:50;4.43;;;3.25;;
49860;SDS011;35761;48.826;9.238;2022-11-20T10:59:28;3.88;;;1.08;;
49860;SDS011;35761;48.826;9.238;2022-11-20T11:02:14;1.95;;;1.00;;
49860;SDS011;35761;48.826;9.238;2022-11-20T11:04:47;1.95;;;1.13;;
49860;SDS011;35761;48.826;9.238;2022-11-20T11:07:20;3.38;;;1.15;;
49860;SDS011;35761;48.826;9.238;2022-11-20T11:09:52;1.55;;;1.20;;
49860;SDS011;35761;48.826;9.238;2022-11-20T11:12:25;1.80;;;1.02;;
49860;SDS011;35761;48.826;9.238;2022-11-20T11:14:56;2.13;;;1.33;;
49860;SDS011;35761;48.826;9.238;2022-11-20T11:17:26;1.70;;;0.98;;
49860;SDS011;35761;48.826;9.238;2022-11-20T11:20:02;2.08;;;1.17;;
49860;SDS011;35761;48.826;9.238;2022-11-20T11:22:39;1.98;;;1.25;;
49860;SDS011;35761;48.826;9.238;2022-11-20T11:25:21;2.22;;;1.17;;
49860;SDS011;35761;48.826;9.238;2022-11-20T11:28:20;3.15;;;1.13;;
49860;SDS011;35761;48.826;9.238;2022-11-20T11:30:57;1.70;;;0.90;;
49860;SDS011;35761;48.826;9.238;2022-11-20T11:33:26;1.73;;;1.13;;
49860;SDS011;35761;48.826;9.238;2022-11-20T11:35:58;4.50;;;1.20;;
49860;SDS011;35761;48.826;9.238;2022-11-20T11:38:30;2.78;;;1.25;;
49860;SDS011;35761;48.826;9.238;2022-11-20T11:41:03;1.42;;;1.00;;
49860;SDS011;35761;48.826;9.238;2022-11-20T11:43:34;2.42;;;0.90;;
49860;SDS011;35761;48.826;9.238;2022-11-20T11:46:26;6.40;;;1.40;;
49860;SDS011;35761;48.826;9.238;2022-11-20T11:48:59;3.08;;;1.25;;
49860;SDS011;35761;48.826;9.238;2022-11-20T11:51:39;3.42;;;1.27;;
49860;SDS011;35761;48.826;9.238;2022-11-20T11:54:22;3.90;;;1.50;;
49860;SDS011;35761;48.826;9.238;2022-11-20T11:56:54;2.78;;;1.95;;
49860;SDS011;35761;48.826;9.238;2022-11-20T11:59:27;5.22;;;2.42;;
49860;SDS011;35761;48.826;9.238;2022-11-20T12:02:12;7.93;;;2.35;;
49860;SDS011;35761;48.826;9.238;2022-11-20T12:05:03;2.45;;;1.40;;
49860;SDS011;35761;48.826;9.238;2022-11-20T12:07:45;17.25;;;6.82;;
49860;SDS011;35761;48.826;9.238;2022-11-20T12:10:19;2.50;;;1.27;;
49860;SDS011;35761;48.826;9.238;2022-11-20T12:12:54;3.92;;;1.65;;
49860;SDS011;35761;48.826;9.238;2022-11-20T12:15:33;4.03;;;1.50;;
49860;SDS011;35761;48.826;9.238;2022-11-20T12:18:04;5.45;;;1.58;;
49860;SDS011;35761;48.826;9.238;2022-11-20T12:20:44;6.18;;;1.70;;
49860;SDS011;35761;48.826;9.238;2022-11-20T12:23:25;8.30;;;1.80;;
49860;SDS011;35761;48.826;9.238;2022-11-20T12:28:34;3.65;;;1.40;;
49860;SDS011;35761;48.826;9.238;2022-11-20T12:34:20;3.65;;;1.30;;
49860;SDS011;35761;48.826;9.238;2022-11-20T12:37:04;2.88;;;1.17;;
49860;SDS011;35761;48.826;9.238;2022-11-20T12:39:43;7.90;;;4.75;;
49860;SDS011;35761;48.826;9.238;2022-11-20T12:42:20;4.57;;;1.17;;
49860;SDS011;35761;48.826;9.238;2022-11-20T12:45:33;4.13;;;1.33;;
49860;SDS011;35761;48.826;9.238;2022-11-20T12:48:36;3.28;;;1.05;;
49860;SDS011;35761;48.826;9.238;2022-11-20T12:51:27;7.18;;;1.42;;
49860;SDS011;35761;48.826;9.238;2022-11-20T12:57:24;4.35;;;1.10;;
49860;SDS011;35761;48.826;9.238;2022-11-20T13:00:07;3.22;;;0.80;;
49860;SDS011;35761;48.826;9.238;2022-11-20T13:05:48;3.45;;;1.77;;
49860;SDS011;35761;48.826;9.238;2022-11-20T13:08:24;5.28;;;1.30;;
49860;SDS011;35761;48.826;9.238;2022-11-20T13:10:58;2.20;;;0.95;;
49860;SDS011;35761;48.826;9.238;2022-11-20T13:13:36;1.73;;;0.93;;
49860;SDS011;35761;48.826;9.238;2022-11-20T13:16:16;4.55;;;1.17;;
49860;SDS011;35761;48.826;9.238;2022-11-20T13:18:50;2.83;;;0.90;;
49860;SDS011;35761;48.826;9.238;2022-11-20T13:21:19;4.82;;;0.98;;
49860;SDS011;35761;48.826;9.238;2022-11-20T13:23:50;3.03;;;1.15;;
49860;SDS011;35761;48.826;9.238;2022-11-20T13:26:20;3.92;;;0.98;;
49860;SDS011;35761;48.826;9.238;2022-11-20T13:28:59;4.25;;;1.33;;
49860;SDS011;35761;48.826;9.238;2022-11-20T13:31:32;3.75;;;0.90;;
49860;SDS011;35761;48.826;9.238;2022-11-20T13:34:03;5.65;;;1.23;;
49860;SDS011;35761;48.826;9.238;2022-11-20T13:36:33;2.55;;;1.23;;
49860;SDS011;35761;48.826;9.238;2022-11-20T13:39:03;6.70;;;2.00;;
49860;SDS011;35761;48.826;9.238;2022-11-20T13:41:34;4.53;;;1.65;;
49860;SDS011;35761;48.826;9.238;2022-11-20T13:44:09;3.25;;;1.38;;
49860;SDS011;35761;48.826;9.238;2022-11-20T13:46:43;2.15;;;0.90;;
49860;SDS011;35761;48.826;9.238;2022-11-20T13:49:16;2.33;;;1.00;;
49860;SDS011;35761;48.826;9.238;2022-11-20T13:51:51;4.28;;;1.20;;
49860;SDS011;35761;48.826;9.238;2022-11-20T13:57:36;3.83;;;1.10;;
49860;SDS011;35761;48.826;9.238;2022-11-20T14:00:21;2.95;;;1.10;;
49860;SDS011;35761;48.826;9.238;2022-11-20T14:02:57;1.55;;;0.85;;
49860;SDS011;35761;48.826;9.238;2022-11-20T14:05:46;2.33;;;0.90;;
49860;SDS011;35761;48.826;9.238;2022-11-20T14:08:24;1.73;;;0.80;;
49860;SDS011;35761;48.826;9.238;2022-11-20T14:11:04;2.42;;;0.88;;
49860;SDS011;35761;48.826;9.238;2022-11-20T14:13:49;3.40;;;1.05;;
49860;SDS011;35761;48.826;9.238;2022-11-20T14:16:25;1.30;;;0.75;;
49860;SDS011;35761;48.826;9.238;2022-11-20T14:18:56;1.70;;;0.68;;
49860;SDS011;35761;48.826;9.238;2022-11-20T14:22:19;2.50;;;0.98;;
49860;SDS011;35761;48.826;9.238;2022-11-20T14:25:00;7.65;;;6.35;;
49860;SDS011;35761;48.826;9.238;2022-11-20T14:27:33;4.20;;;2.25;;
49860;SDS011;35761;48.826;9.238;2022-11-20T14:30:11;3.40;;;1.25;;
49860;SDS011;35761;48.826;9.238;2022-11-20T14:32:43;2.67;;;0.70;;
49860;SDS011;35761;48.826;9.238;2022-11-20T14:35:14;6.90;;;1.00;;
49860;SDS011;35761;48.826;9.238;2022-11-20T14:37:49;4.80;;;1.20;;
49860;SDS011;35761;48.826;9.238;2022-11-20T14:40:22;2.85;;;1.00;;
49860;SDS011;35761;48.826;9.238;2022-11-20T14:42:56;2.05;;;0.90;;
49860;SDS011;35761;48.826;9.238;2022-11-20T14:45:28;3.58;;;1.15;;
49860;SDS011;35761;48.826;9.238;2022-11-20T14:47:57;3.85;;;1.27;;
49860;SDS011;35761;48.826;9.238;2022-11-20T14:50:26;2.95;;;1.08;;
49860;SDS011;35761;48.826;9.238;2022-11-20T14:52:57;2.03;;;1.10;;
49860;SDS011;35761;48.826;9.238;2022-11-20T14:55:28;11.88;;;5.65;;
49860;SDS011;35761;48.826;9.238;2022-11-20T14:58:00;20.45;;;8.70;;
49860;SDS011;35761;48.826;9.238;2022-11-20T15:00:32;20.05;;;10.27;;
49860;SDS011;35761;48.826;9.238;2022-11-20T15:03:13;19.13;;;9.27;;
49860;SDS011;35761;48.826;9.238;2022-11-20T15:05:45;43.63;;;20.70;;
49860;SDS011;35761;48.826;9.238;2022-11-20T15:08:15;7.75;;;2.53;;
49860;SDS011;35761;48.826;9.238;2022-11-20T15:10:48;12.82;;;5.35;;
49860;SDS011;35761;48.826;9.238;2022-11-20T15:13:20;3.45;;;1.38;;
49860;SDS011;35761;48.826;9.238;2022-11-20T15:16:00;4.53;;;1.83;;
49860;SDS011;35761;48.826;9.238;2022-11-20T15:18:30;3.03;;;1.10;;
49860;SDS011;35761;48.826;9.238;2022-11-20T15:21:06;3.60;;;1.45;;
49860;SDS011;35761;48.826;9.238;2022-11-20T15:23:40;2.90;;;1.20;;
49860;SDS011;35761;48.826;9.238;2022-11-20T15:26:09;3.88;;;1.42;;
49860;SDS011;35761;48.826;9.238;2022-11-20T15:28:45;4.25;;;1.23;;
49860;SDS011;35761;48.826;9.238;2022-11-20T15:31:19;3.42;;;1.67;;
49860;SDS011;35761;48.826;9.238;2022-11-20T15:33:50;7.30;;;2.05;;
49860;SDS011;35761;48.826;9.238;2022-11-20T15:36:18;5.82;;;2.00;;